createdAt,value
2018-11-01T00:01:16.820Z,5.47
2018-11-01T00:06:20.481Z,5.33
2018-11-01T00:11:24.143Z,5.30
2018-11-01T00:16:27.775Z,5.90
2018-11-01T00:21:31.403Z,5.37
2018-11-01T00:26:35.040Z,5.00
2018-11-01T00:31:38.700Z,5.43
2018-11-01T00:36:42.359Z,5.73
2018-11-01T00:41:45.951Z,6.00
2018-11-01T00:46:49.584Z,7.47
2018-11-01T00:51:53.212Z,6.50
2018-11-01T00:56:56.912Z,5.73
2018-11-01T01:02:00.511Z,6.70
2018-11-01T01:07:04.150Z,6.60
2018-11-01T01:12:07.767Z,7.23
2018-11-01T01:17:11.452Z,6.43
2018-11-01T01:22:15.172Z,6.43
2018-11-01T01:27:23.971Z,6.90
2018-11-01T01:32:27.587Z,6.63
2018-11-01T01:37:31.260Z,9.10
2018-11-01T01:42:35.886Z,7.03
2018-11-01T01:47:39.546Z,7.40
2018-11-01T01:52:43.847Z,7.93
2018-11-01T01:57:47.571Z,7.70
2018-11-01T02:02:52.149Z,7.90
2018-11-01T02:07:55.815Z,7.30
2018-11-01T02:12:59.459Z,7.80
2018-11-01T02:18:03.081Z,8.27
2018-11-01T02:23:06.974Z,8.33
2018-11-01T02:28:16.231Z,8.40
2018-11-01T02:33:19.951Z,8.53
2018-11-01T02:38:23.592Z,9.13
2018-11-01T02:43:27.283Z,8.57
2018-11-01T02:48:31.109Z,9.03
2018-11-01T02:53:34.743Z,9.20
2018-11-01T02:58:38.398Z,9.67
2018-11-01T03:03:42.290Z,10.00
2018-11-01T03:08:46.211Z,8.80
2018-11-01T03:13:49.888Z,11.00
2018-11-01T03:18:53.533Z,10.50
2018-11-01T03:23:57.159Z,9.20
2018-11-01T03:29:00.817Z,8.87
2018-11-01T03:34:04.598Z,10.43
2018-11-01T03:39:09.548Z,11.57
2018-11-01T03:44:13.238Z,10.40
2018-11-01T03:49:16.959Z,10.80
2018-11-01T03:54:20.709Z,10.30
2018-11-01T03:59:24.311Z,10.90
2018-11-01T04:04:28.010Z,12.18
2018-11-01T04:09:31.743Z,10.90
2018-11-01T04:14:35.483Z,11.13
2018-11-01T04:19:39.127Z,11.10
2018-11-01T04:24:42.820Z,10.80
2018-11-01T04:29:46.438Z,11.70
2018-11-01T04:34:50.294Z,11.00
2018-11-01T04:39:53.943Z,12.00
2018-11-01T04:44:57.815Z,11.47
2018-11-01T04:50:01.855Z,10.53
2018-11-01T04:55:06.342Z,10.90
2018-11-01T05:00:11.822Z,11.30
2018-11-01T05:05:15.734Z,11.70
2018-11-01T05:10:19.337Z,11.23
2018-11-01T05:15:23.145Z,12.30
2018-11-01T05:20:26.771Z,12.70
2018-11-01T05:25:30.424Z,12.90
2018-11-01T05:30:34.118Z,13.10
2018-11-01T05:35:37.859Z,13.30
2018-11-01T05:40:41.563Z,15.20
2018-11-01T05:45:45.284Z,14.27
2018-11-01T05:50:48.890Z,12.33
2018-11-01T05:55:52.635Z,12.93
2018-11-01T06:00:56.293Z,13.93
2018-11-01T06:05:59.962Z,15.33
2018-11-01T06:11:03.665Z,17.50
2018-11-01T06:16:07.423Z,16.53
2018-11-01T06:21:11.098Z,13.13
2018-11-01T06:26:14.730Z,14.93
2018-11-01T06:31:18.363Z,13.20
2018-11-01T06:36:22.000Z,15.30
2018-11-01T06:41:25.674Z,14.30
2018-11-01T06:46:29.335Z,13.73
2018-11-01T06:51:33.880Z,16.27
2018-11-01T06:56:37.577Z,15.40
2018-11-01T07:01:41.272Z,16.60
2018-11-01T07:06:44.901Z,14.87
2018-11-01T07:11:48.716Z,16.13
2018-11-01T07:16:52.622Z,15.17
2018-11-01T07:21:56.451Z,17.33
2018-11-01T07:27:00.175Z,16.90
2018-11-01T07:32:03.895Z,19.27
2018-11-01T07:37:07.965Z,19.93
2018-11-01T07:42:11.638Z,18.80
2018-11-01T07:47:15.280Z,18.67
2018-11-01T07:52:19.033Z,17.73
2018-11-01T07:57:22.690Z,16.43
2018-11-01T08:02:26.311Z,18.17
2018-11-01T08:07:30.253Z,18.60
2018-11-01T08:12:33.843Z,19.43
2018-11-01T08:17:37.578Z,17.77
2018-11-01T08:22:42.022Z,18.67
2018-11-01T08:27:45.700Z,18.60
2018-11-01T08:32:49.319Z,17.60
2018-11-01T08:37:52.974Z,18.20
2018-11-01T08:42:56.612Z,18.07
2018-11-01T08:48:00.457Z,20.43
2018-11-01T08:53:04.251Z,20.37
2018-11-01T08:58:07.855Z,20.10
2018-11-01T09:03:11.496Z,19.77
2018-11-01T09:08:15.754Z,20.77
2018-11-01T09:13:20.946Z,20.33
2018-11-01T09:18:24.568Z,19.57
2018-11-01T09:23:28.212Z,19.43
2018-11-01T09:28:31.875Z,19.70
2018-11-01T09:33:35.733Z,17.53
2018-11-01T09:38:39.358Z,17.87
2018-11-01T09:43:43.007Z,17.53
2018-11-01T09:48:46.659Z,17.20
2018-11-01T09:53:50.281Z,14.93
2018-11-01T09:58:53.907Z,14.97
2018-11-01T10:03:57.546Z,14.67
2018-11-01T10:09:01.176Z,14.10
2018-11-01T10:14:05.190Z,14.30
2018-11-01T10:19:09.844Z,14.47
2018-11-01T10:24:13.938Z,13.47
2018-11-01T10:29:17.741Z,13.40
2018-11-01T10:34:21.513Z,12.50
2018-11-01T10:39:25.291Z,12.60
2018-11-01T10:44:28.907Z,11.83
2018-11-01T10:49:32.528Z,10.90
2018-11-01T10:54:36.140Z,13.10
2018-11-01T10:59:39.760Z,11.20
2018-11-01T11:04:43.597Z,9.90
2018-11-01T11:09:47.339Z,10.43
2018-11-01T11:14:50.968Z,10.30
2018-11-01T11:19:54.627Z,10.53
2018-11-01T11:24:58.182Z,10.67
2018-11-01T11:30:02.271Z,10.97
2018-11-01T11:35:06.154Z,10.33
2018-11-01T11:40:10.755Z,9.90
2018-11-01T11:45:14.393Z,10.27
2018-11-01T11:50:17.999Z,9.63
2018-11-01T11:55:21.633Z,9.30
2018-11-01T12:00:25.254Z,8.40
2018-11-01T12:05:28.955Z,7.40
2018-11-01T12:10:32.533Z,7.80
2018-11-01T12:15:36.296Z,7.80
2018-11-01T12:20:40.000Z,8.53
2018-11-01T12:25:43.770Z,8.77
2018-11-01T12:30:47.439Z,7.80
2018-11-01T12:35:51.176Z,8.70
2018-11-01T12:40:54.872Z,9.00
2018-11-01T12:45:58.567Z,8.03
2018-11-01T12:51:02.189Z,7.90
2018-11-01T12:56:06.032Z,8.47
2018-11-01T13:01:10.181Z,8.20
2018-11-01T13:06:13.887Z,7.93
2018-11-01T13:11:17.502Z,8.00
2018-11-01T13:16:21.122Z,7.90
2018-11-01T13:21:25.060Z,9.87
2018-11-01T13:26:28.938Z,8.57
2018-11-01T13:31:33.016Z,8.97
2018-11-01T13:36:37.131Z,9.43
2018-11-01T13:41:41.019Z,9.37
2018-11-01T13:46:45.245Z,8.87
2018-11-01T13:51:48.968Z,8.93
2018-11-01T13:56:52.889Z,8.33
2018-11-01T14:01:56.982Z,10.00
2018-11-01T14:07:00.814Z,9.10
2018-11-01T14:12:04.851Z,8.30
2018-11-01T14:17:08.763Z,8.80
2018-11-01T14:22:12.507Z,8.50
2018-11-01T14:27:16.217Z,9.37
2018-11-01T14:32:19.819Z,9.53
2018-11-01T14:37:23.562Z,9.33
2018-11-01T14:42:27.148Z,8.63
2018-11-01T14:47:30.796Z,9.37
2018-11-01T14:52:34.812Z,9.13
2018-11-01T14:57:39.772Z,9.27
2018-11-01T15:02:41.660Z,8.90
2018-11-01T15:07:45.270Z,8.47
2018-11-01T15:12:48.888Z,8.37
2018-11-01T15:17:52.503Z,9.67
2018-11-01T15:22:56.591Z,8.60
2018-11-01T15:28:00.280Z,8.87
2018-11-01T15:33:03.912Z,8.50
2018-11-01T15:38:07.611Z,8.50
2018-11-01T15:43:11.335Z,8.30
2018-11-01T15:48:15.049Z,8.10
2018-11-01T15:58:27.929Z,9.97
2018-11-01T16:03:31.674Z,8.27
2018-11-01T16:08:35.243Z,8.67
2018-11-01T16:13:38.971Z,9.57
2018-11-01T16:18:42.596Z,8.83
2018-11-01T16:23:46.218Z,10.13
2018-11-01T16:28:50.296Z,8.43
2018-11-01T16:33:54.064Z,8.47
2018-11-01T16:38:57.776Z,9.37
2018-11-01T16:44:01.435Z,9.50
2018-11-01T16:49:05.775Z,10.13
2018-11-01T16:54:09.600Z,9.90
2018-11-01T16:59:13.334Z,10.80
2018-11-01T17:04:18.855Z,11.10
2018-11-01T17:09:22.598Z,9.67
2018-11-01T17:14:28.155Z,10.37
2018-11-01T17:19:31.760Z,9.20
2018-11-01T17:24:35.432Z,10.53
2018-11-01T17:29:39.060Z,10.67
2018-11-01T17:34:42.770Z,11.47
2018-11-01T17:39:46.387Z,11.43
2018-11-01T17:44:50.186Z,9.80
2018-11-01T17:49:55.543Z,11.43
2018-11-01T17:54:59.416Z,10.83
2018-11-01T18:00:03.168Z,10.40
2018-11-01T18:05:07.373Z,10.67
2018-11-01T18:10:12.120Z,10.40
2018-11-01T18:15:15.936Z,10.30
2018-11-01T18:20:19.560Z,11.07
2018-11-01T18:25:23.333Z,11.20
2018-11-01T18:30:27.081Z,11.23
2018-11-01T18:35:30.803Z,11.10
2018-11-01T18:40:35.710Z,9.50
2018-11-01T18:45:39.366Z,10.27
2018-11-01T18:50:42.992Z,10.07
2018-11-01T18:55:46.711Z,11.30
2018-11-01T19:00:50.405Z,10.10
2018-11-01T19:05:54.074Z,11.50
2018-11-01T19:10:58.072Z,10.93
2018-11-01T19:16:02.111Z,10.47
2018-11-01T19:21:05.911Z,12.40
2018-11-01T19:26:09.779Z,11.70
2018-11-01T19:31:13.664Z,10.10
2018-11-01T19:36:17.372Z,10.07
2018-11-01T19:41:21.041Z,10.93
2018-11-01T19:46:24.787Z,10.90
2018-11-01T19:51:28.451Z,10.13
2018-11-01T19:56:32.155Z,9.57
2018-11-01T20:01:35.825Z,8.43
2018-11-01T20:06:39.485Z,9.10
2018-11-01T20:11:43.182Z,8.47
2018-11-01T20:16:46.918Z,7.67
2018-11-01T20:21:50.755Z,8.33
2018-11-01T20:26:54.373Z,6.97
2018-11-01T20:31:58.076Z,8.60
2018-11-01T20:37:01.833Z,7.00
2018-11-01T20:42:05.584Z,8.20
2018-11-01T20:47:09.253Z,8.47
2018-11-01T20:52:12.976Z,6.87
2018-11-01T20:57:16.673Z,7.30
2018-11-01T21:02:20.275Z,6.70
2018-11-01T21:07:24.190Z,6.93
2018-11-01T21:12:27.862Z,7.10
2018-11-01T21:17:31.501Z,6.67
2018-11-01T21:22:35.174Z,5.93
2018-11-01T21:27:38.815Z,6.50
2018-11-01T21:32:42.430Z,6.77
2018-11-01T21:37:46.128Z,6.67
2018-11-01T21:42:49.765Z,6.80
2018-11-01T21:47:53.404Z,5.60
2018-11-01T21:52:57.131Z,7.07
2018-11-01T21:58:00.794Z,6.40
2018-11-01T22:03:04.654Z,5.87
2018-11-01T22:08:08.352Z,7.30
2018-11-01T22:13:12.204Z,6.70
2018-11-01T22:18:15.849Z,7.20
2018-11-01T22:23:19.470Z,8.33
2018-11-01T22:28:23.234Z,7.37
2018-11-01T22:33:26.736Z,7.70
2018-11-01T22:38:30.369Z,7.43
2018-11-01T22:43:33.977Z,6.80
2018-11-01T22:48:37.748Z,7.53
2018-11-01T22:53:41.398Z,7.13
2018-11-01T22:58:45.037Z,6.93
2018-11-01T23:03:48.631Z,6.63
2018-11-01T23:08:52.368Z,6.30
2018-11-01T23:13:56.089Z,6.93
2018-11-01T23:18:59.702Z,7.53
2018-11-01T23:24:03.320Z,7.40
2018-11-01T23:29:06.949Z,7.80
2018-11-01T23:34:10.657Z,6.50
2018-11-01T23:39:19.898Z,7.50
2018-11-01T23:44:29.141Z,7.50
2018-11-01T23:49:39.027Z,6.70
2018-11-01T23:54:42.848Z,6.60
2018-11-01T23:59:46.685Z,6.93
